Ashern, Canada
Current Conditions -  °F | °C
As of 12:00 AM on Friday 31 Oct 2014 (Local Time) from CYDN Reporting Station
Clear Clear  
Wind Chill: -12°   Ceiling: Unl
Heat Index: -8°   Visibility: 9mi
Dew Point: -9°   Wind: 5mph
Humidity: 93%   Direction: 240°WSW
Pressure: 30.58"   Gusts: NA
Location:  51.18°N, 98.33°W
Report Text: CYDN 310500Z AUTO 24004KT 9SM CLR M08/M09 A3058 RMK SLP377
Loading
Personal Weather Stations






























Interactive Weather Map
Tropical Storm Tracking
New forecast layout! Learn more

10-Day Weather Forecast

Advertisements
Track Severe Weather on mobile